Time;durP1;ratioP1;P1;durP2;ratioP2;P2;SDS_P1;SDS_P2;PMS_P1;PMS_P2;Temp;Humidity;BMP_temperature;BMP_pressure;BME280_temperature;BME280_humidity;BME280_pressure;Samples;Min_cycle;Max_cycle;Signal;HPM_P1;HPM_P2
2024/01/19 00:01:27;;;;;;;6.60;1.40;;;4.70;99.90;;;;;;5045871;28;20040;-79
2024/01/19 00:03:53;;;;;;;5.22;1.52;;;4.40;99.90;;;;;;5037285;28;20559;-79
2024/01/19 00:06:19;;;;;;;3.72;1.10;;;4.60;99.90;;;;;;5034214;28;20093;-81
2024/01/19 00:08:44;;;;;;;3.50;1.30;;;4.60;96.70;;;;;;5052383;28;20041;-78
2024/01/19 00:11:18;;;;;;;5.75;1.83;;;4.00;92.60;;;;;;5061993;28;20078;-80
2024/01/19 00:13:43;;;;;;;4.35;1.63;;;4.00;99.90;;;;;;5043832;28;20439;-80
2024/01/19 00:16:12;;;;;;;5.60;1.60;;;4.20;99.90;;;;;;5013378;28;20052;-79
2024/01/19 00:18:37;;;;;;;5.38;1.83;;;4.30;99.90;;;;;;5050587;28;20373;-80
2024/01/19 00:21:03;;;;;;;5.55;1.45;;;4.40;99.90;;;;;;5034538;28;20127;-78
2024/01/19 00:23:29;;;;;;;3.63;1.80;;;4.20;99.90;;;;;;5045106;28;20033;-81
2024/01/19 00:25:54;;;;;;;4.57;1.50;;;4.70;99.90;;;;;;5061722;28;20433;-78
2024/01/19 00:28:20;;;;;;;3.75;1.52;;;4.20;99.90;;;;;;5054728;28;20028;-78
2024/01/19 00:30:46;;;;;;;3.78;1.50;;;4.30;99.90;;;;;;5051647;28;20445;-78
2024/01/19 00:33:11;;;;;;;3.50;1.40;;;4.40;99.90;;;;;;5026634;28;20177;-79
2024/01/19 00:35:37;;;;;;;3.58;1.23;;;5.10;99.90;;;;;;5039167;28;20074;-77
2024/01/19 00:38:03;;;;;;;4.78;1.25;;;5.00;71.10;;;;;;5052951;28;20049;-78
2024/01/19 00:40:29;;;;;;;4.03;1.05;;;5.20;1.00;;;;;;5039685;28;20059;-79
2024/01/19 00:42:55;;;;;;;3.88;1.08;;;5.20;1.00;;;;;;5028262;28;20405;-79
2024/01/19 00:45:20;;;;;;;3.28;0.88;;;4.90;1.00;;;;;;5045606;28;20382;-78
2024/01/19 00:47:46;;;;;;;2.78;1.00;;;4.70;1.00;;;;;;5050978;28;20029;-80
2024/01/19 00:50:13;;;;;;;3.58;0.88;;;5.10;1.00;;;;;;5064130;28;20037;-80
2024/01/19 00:52:40;;;;;;;3.75;0.90;;;4.90;2.40;;;;;;5060715;28;20037;-81
2024/01/19 00:55:06;;;;;;;3.22;1.10;;;5.10;1.00;;;;;;5045141;28;20033;-77
2024/01/19 00:57:32;;;;;;;3.10;0.98;;;4.80;1.90;;;;;;5060159;28;20184;-77
2024/01/19 00:59:57;;;;;;;5.68;1.38;;;5.60;1.70;;;;;;5043807;28;20125;-78
2024/01/19 01:02:27;;;;;;;4.93;1.30;;;5.40;7.80;;;;;;5067399;28;20048;-78
2024/01/19 01:04:56;;;;;;;3.78;1.15;;;5.50;81.20;;;;;;5073038;28;20481;-79
2024/01/19 01:07:22;;;;;;;2.42;1.00;;;5.40;99.90;;;;;;5046774;28;20137;-80
2024/01/19 01:09:48;;;;;;;4.03;1.20;;;4.80;99.90;;;;;;5052322;28;20043;-79
2024/01/19 01:12:14;;;;;;;1.80;0.90;;;4.80;99.90;;;;;;5068040;28;20044;-78
2024/01/19 01:14:40;;;;;;;1.92;0.93;;;5.20;93.60;;;;;;5063016;28;20047;-79
2024/01/19 01:17:06;;;;;;;1.13;0.70;;;5.40;41.00;;;;;;5029092;28;20060;-79
2024/01/19 01:19:34;;;;;;;2.13;1.02;;;5.00;1.00;;;;;;5045864;28;20037;-80
2024/01/19 01:22:00;;;;;;;1.52;0.98;;;4.60;1.00;;;;;;5058053;28;20158;-80
2024/01/19 01:24:26;;;;;;;2.88;1.00;;;5.10;1.00;;;;;;5035239;28;20075;-80
2024/01/19 01:26:52;;;;;;;1.80;1.10;;;5.10;1.00;;;;;;5033064;28;20068;-80
2024/01/19 01:29:17;;;;;;;1.45;1.08;;;5.10;1.00;;;;;;5050750;28;20628;-81
2024/01/19 01:31:43;;;;;;;3.15;1.30;;;5.10;1.00;;;;;;5066584;28;20122;-77
2024/01/19 01:34:09;;;;;;;2.83;1.50;;;5.10;4.20;;;;;;5037642;28;20040;-78
2024/01/19 01:36:35;;;;;;;4.25;1.30;;;4.80;76.60;;;;;;5033410;28;20040;-78
2024/01/19 01:39:00;;;;;;;4.07;1.17;;;4.30;63.70;;;;;;5049734;28;20120;-80
2024/01/19 01:41:26;;;;;;;2.17;0.95;;;4.40;99.90;;;;;;5018773;28;20040;-81
2024/01/19 01:43:52;;;;;;;2.90;1.20;;;4.90;99.90;;;;;;5050315;28;20121;-79
2024/01/19 01:46:17;;;;;;;2.15;0.90;;;4.90;99.90;;;;;;5014071;28;20040;-78
2024/01/19 01:48:43;;;;;;;3.22;1.20;;;4.10;99.90;;;;;;5088645;27;20370;-78
2024/01/19 01:51:09;;;;;;;3.67;1.23;;;4.70;99.90;;;;;;5059127;28;20166;-79
2024/01/19 01:53:35;;;;;;;3.05;1.05;;;4.70;99.90;;;;;;5050879;28;20060;-82
2024/01/19 01:56:05;;;;;;;2.35;0.85;;;4.10;99.90;;;;;;5065483;28;20738;-79
2024/01/19 01:58:31;;;;;;;5.53;1.30;;;4.10;99.90;;;;;;5059425;28;20036;-78
2024/01/19 02:00:58;;;;;;;3.92;1.40;;;4.40;99.90;;;;;;5061454;28;20049;-81
2024/01/19 02:03:24;;;;;;;3.65;1.10;;;4.50;99.90;;;;;;5059225;28;20257;-80
2024/01/19 02:05:49;;;;;;;3.10;1.20;;;3.90;99.90;;;;;;5042981;28;20127;-77
2024/01/19 02:08:15;;;;;;;5.70;1.40;;;4.80;1.00;;;;;;5037377;28;20036;-77
2024/01/19 02:10:41;;;;;;;2.03;1.00;;;4.40;1.00;;;;;;5044461;28;20048;-80
2024/01/19 02:13:07;;;;;;;2.80;1.33;;;4.50;1.00;;;;;;5033760;28;20040;-80
2024/01/19 02:15:35;;;;;;;3.97;1.45;;;4.60;1.00;;;;;;5055500;28;20497;-78
2024/01/19 02:18:01;;;;;;;3.85;1.20;;;4.60;1.00;;;;;;5038387;28;20048;-78
2024/01/19 02:20:26;;;;;;;4.13;1.48;;;4.30;1.00;;;;;;5054567;28;20045;-77
2024/01/19 02:22:53;;;;;;;5.18;1.30;;;4.80;28.40;;;;;;5023011;28;20044;-77
2024/01/19 02:25:19;;;;;;;5.55;1.58;;;4.40;80.20;;;;;;5030038;28;20114;-78
2024/01/19 02:27:46;;;;;;;4.22;1.63;;;5.00;99.90;;;;;;5029740;28;20476;-76
2024/01/19 02:30:12;;;;;;;5.03;1.77;;;5.50;99.90;;;;;;5026082;28;20400;-77
2024/01/19 02:32:38;;;;;;;10.00;1.83;;;5.00;99.90;;;;;;5053254;28;20120;-79
2024/01/19 02:35:04;;;;;;;6.00;1.70;;;4.90;65.90;;;;;;5055725;28;20045;-78
2024/01/19 02:37:30;;;;;;;7.30;2.10;;;4.80;99.90;;;;;;5058452;28;20043;-79
2024/01/19 02:39:56;;;;;;;5.95;2.30;;;4.70;99.90;;;;;;5049994;28;20036;-80
2024/01/19 02:42:22;;;;;;;8.15;1.90;;;4.80;99.90;;;;;;5045304;28;20041;-77
2024/01/19 02:44:47;;;;;;;5.38;1.52;;;5.00;99.90;;;;;;5032785;28;20037;-77
2024/01/19 02:47:13;;;;;;;5.47;1.90;;;4.80;99.90;;;;;;5014438;28;20041;-79
2024/01/19 02:49:39;;;;;;;4.82;1.73;;;4.50;99.90;;;;;;5057358;28;20041;-77
2024/01/19 02:52:05;;;;;;;6.03;2.15;;;4.40;99.90;;;;;;5055157;28;20500;-78
2024/01/19 02:54:31;;;;;;;3.78;1.40;;;4.80;99.90;;;;;;5065527;28;20037;-78
2024/01/19 02:56:56;;;;;;;5.25;1.50;;;4.10;99.90;;;;;;5054720;28;20067;-77
2024/01/19 02:59:22;;;;;;;2.88;1.35;;;4.50;99.90;;;;;;5046317;28;20097;-77
2024/01/19 03:01:47;;;;;;;5.95;1.30;;;4.50;99.90;;;;;;5048091;28;20048;-77
2024/01/19 03:04:13;;;;;;;5.78;1.45;;;4.50;99.90;;;;;;5042399;28;20645;-76
2024/01/19 03:06:39;;;;;;;4.35;1.60;;;4.10;99.90;;;;;;5065184;28;20032;-76
2024/01/19 03:09:04;;;;;;;3.88;1.50;;;4.40;99.90;;;;;;5028961;28;20652;-76
2024/01/19 03:11:30;;;;;;;4.60;1.30;;;3.90;99.90;;;;;;5033728;28;20065;-77
2024/01/19 03:13:56;;;;;;;3.45;1.33;;;3.70;99.90;;;;;;5032626;28;20374;-76
2024/01/19 03:16:22;;;;;;;6.75;1.50;;;4.10;99.90;;;;;;5045242;28;20061;-78
2024/01/19 03:18:47;;;;;;;5.45;1.55;;;4.20;99.90;;;;;;5070098;28;20040;-79
2024/01/19 03:21:13;;;;;;;3.38;1.55;;;3.70;99.90;;;;;;5045658;28;20171;-78
2024/01/19 03:23:39;;;;;;;6.30;2.25;;;4.20;99.90;;;;;;5045928;28;20480;-78
2024/01/19 03:26:05;;;;;;;6.63;1.60;;;3.60;99.90;;;;;;5031594;28;20044;-76
2024/01/19 03:28:31;;;;;;;5.90;1.70;;;4.20;99.90;;;;;;5037296;28;20045;-82
2024/01/19 03:30:57;;;;;;;4.80;1.60;;;4.40;99.90;;;;;;5018737;28;20033;-79
2024/01/19 03:33:23;;;;;;;8.70;1.83;;;3.70;99.90;;;;;;5046868;28;20044;-78
2024/01/19 03:35:49;;;;;;;8.57;1.92;;;3.50;99.90;;;;;;5030817;28;20037;-78
2024/01/19 03:38:15;;;;;;;9.68;1.90;;;4.20;99.90;;;;;;5044854;28;20033;-80
2024/01/19 03:40:41;;;;;;;6.22;1.77;;;4.30;99.90;;;;;;5019484;28;20036;-78
2024/01/19 03:43:07;;;;;;;6.25;1.80;;;4.20;99.90;;;;;;5045478;28;20400;-77
2024/01/19 03:45:32;;;;;;;6.10;1.55;;;3.70;99.90;;;;;;5033019;28;20048;-78
2024/01/19 03:47:58;;;;;;;5.22;1.60;;;4.30;99.90;;;;;;5060286;28;20058;-77
2024/01/19 03:50:24;;;;;;;3.92;1.70;;;3.70;99.90;;;;;;5033292;28;20121;-78
2024/01/19 03:52:49;;;;;;;10.93;2.05;;;4.50;99.90;;;;;;5062682;28;20083;-77
2024/01/19 03:55:16;;;;;;;8.60;2.08;;;4.40;99.90;;;;;;5046785;28;20130;-77
2024/01/19 03:57:41;;;;;;;6.22;1.73;;;3.90;99.90;;;;;;5043756;28;20043;-79
2024/01/19 04:00:08;;;;;;;4.20;1.48;;;4.80;99.90;;;;;;5051575;28;20033;-77
2024/01/19 04:02:35;;;;;;;11.27;1.45;;;4.10;99.90;;;;;;5054482;28;20114;-78
2024/01/19 04:05:01;;;;;;;6.28;1.67;;;4.20;99.90;;;;;;5063603;28;20037;-79
2024/01/19 04:07:26;;;;;;;6.88;1.98;;;4.20;99.90;;;;;;5039152;28;20119;-76
2024/01/19 04:09:52;;;;;;;7.22;1.88;;;3.50;99.90;;;;;;5062946;28;20170;-78
2024/01/19 04:12:18;;;;;;;6.03;2.00;;;4.00;99.90;;;;;;5030578;28;20044;-77
2024/01/19 04:14:45;;;;;;;8.25;2.35;;;3.70;99.90;;;;;;5031057;28;20047;-80
2024/01/19 04:17:12;;;;;;;5.00;2.05;;;5.10;99.90;;;;;;5029023;28;20354;-77
2024/01/19 04:19:38;;;;;;;12.88;2.42;;;4.20;99.90;;;;;;5056062;28;20430;-77
2024/01/19 04:22:05;;;;;;;6.55;1.98;;;3.80;99.90;;;;;;5063896;28;20059;-77
2024/01/19 04:24:30;;;;;;;7.45;1.80;;;4.40;99.90;;;;;;5040548;28;20044;-78
2024/01/19 04:26:56;;;;;;;7.82;2.30;;;3.90;99.90;;;;;;5039569;28;20037;-78
2024/01/19 04:29:22;;;;;;;8.55;2.30;;;4.60;99.90;;;;;;5064914;28;20055;-78
2024/01/19 04:31:48;;;;;;;13.07;2.28;;;4.70;99.90;;;;;;5030004;28;20047;-77
2024/01/19 04:34:14;;;;;;;8.25;2.20;;;4.60;99.90;;;;;;5037177;28;20055;-77
2024/01/19 04:36:40;;;;;;;7.25;1.83;;;4.70;99.90;;;;;;5045460;28;20037;-78
2024/01/19 04:39:05;;;;;;;6.05;2.00;;;5.20;99.90;;;;;;5050938;28;20041;-79
2024/01/19 04:41:32;;;;;;;11.35;2.00;;;4.80;99.90;;;;;;5043359;28;20537;-78
2024/01/19 04:43:58;;;;;;;11.25;2.30;;;4.20;99.90;;;;;;5070913;28;20044;-79
2024/01/19 04:46:24;;;;;;;8.43;2.00;;;4.70;99.90;;;;;;5052007;28;20370;-77
2024/01/19 04:48:49;;;;;;;6.50;1.70;;;4.80;99.90;;;;;;5051464;28;20528;-78
2024/01/19 04:51:15;;;;;;;9.10;1.88;;;4.90;99.90;;;;;;5031772;28;20037;-78
2024/01/19 04:53:41;;;;;;;9.50;2.25;;;4.70;99.90;;;;;;5048765;28;20131;-77
2024/01/19 04:56:07;;;;;;;11.85;2.15;;;4.20;99.90;;;;;;5051871;28;20067;-78
2024/01/19 04:58:34;;;;;;;14.15;2.25;;;4.10;99.90;;;;;;5067250;28;20075;-79
2024/01/19 05:01:01;;;;;;;12.82;2.50;;;4.10;99.90;;;;;;5027881;28;20072;-79
2024/01/19 05:03:26;;;;;;;8.48;1.80;;;4.10;99.90;;;;;;5051557;28;20671;-78
2024/01/19 05:05:52;;;;;;;9.93;2.53;;;4.60;99.90;;;;;;5060047;28;20055;-78
2024/01/19 05:08:18;;;;;;;7.15;2.13;;;4.40;99.90;;;;;;5049415;28;20040;-78
2024/01/19 05:10:43;;;;;;;9.98;2.35;;;4.90;99.90;;;;;;5066089;28;20103;-77
2024/01/19 05:13:09;;;;;;;8.82;2.15;;;4.10;99.90;;;;;;5040975;28;20115;-79
2024/01/19 05:15:35;;;;;;;7.90;2.30;;;4.60;99.90;;;;;;5049725;28;20478;-78
2024/01/19 05:18:02;;;;;;;7.28;2.15;;;3.90;99.90;;;;;;5055396;28;20052;-77
2024/01/19 05:20:28;;;;;;;8.70;2.20;;;4.20;99.90;;;;;;5068563;28;20041;-78
2024/01/19 05:22:54;;;;;;;8.75;2.38;;;3.80;99.90;;;;;;5040823;28;20060;-78
2024/01/19 05:25:20;;;;;;;7.78;2.20;;;4.20;99.90;;;;;;5051363;28;20037;-79
2024/01/19 05:27:47;;;;;;;12.75;2.78;;;4.50;99.90;;;;;;5033611;28;20041;-80
2024/01/19 05:30:13;;;;;;;6.50;2.00;;;4.90;99.90;;;;;;5035947;28;20036;-78
2024/01/19 05:32:40;;;;;;;10.40;2.53;;;4.60;99.90;;;;;;5038926;28;20033;-79
2024/01/19 05:35:06;;;;;;;10.15;3.08;;;4.40;99.90;;;;;;5051199;28;20048;-79
2024/01/19 05:37:31;;;;;;;11.18;3.33;;;4.70;99.90;;;;;;5077010;28;20043;-78
2024/01/19 05:39:57;;;;;;;14.98;2.70;;;4.40;99.90;;;;;;5050931;28;20490;-78
2024/01/19 05:42:23;;;;;;;12.40;1.95;;;4.80;99.90;;;;;;5047884;28;20416;-78
2024/01/19 05:44:49;;;;;;;9.10;1.90;;;4.30;99.90;;;;;;5065921;28;20040;-78
2024/01/19 05:47:14;;;;;;;12.38;2.33;;;4.50;99.90;;;;;;5045382;28;20374;-78
2024/01/19 05:49:40;;;;;;;7.00;2.22;;;5.40;99.90;;;;;;5046473;28;20043;-79
2024/01/19 05:52:06;;;;;;;7.40;2.20;;;4.40;99.90;;;;;;5030289;28;20044;-79
2024/01/19 05:54:35;;;;;;;7.50;2.47;;;4.80;99.90;;;;;;5032343;28;20047;-77
2024/01/19 05:57:01;;;;;;;8.88;2.03;;;4.10;99.90;;;;;;5064029;28;20052;-79
2024/01/19 05:59:28;;;;;;;12.77;2.45;;;4.50;99.90;;;;;;5031144;28;20044;-78
2024/01/19 06:01:53;;;;;;;9.68;2.40;;;4.30;99.90;;;;;;5060399;28;20692;-78
2024/01/19 06:04:19;;;;;;;8.10;2.13;;;4.30;99.90;;;;;;5046292;28;20052;-77
2024/01/19 06:06:44;;;;;;;8.65;1.80;;;4.50;99.90;;;;;;5061659;28;20493;-77
2024/01/19 06:09:10;;;;;;;10.55;3.08;;;3.70;99.90;;;;;;5046606;28;20083;-77
2024/01/19 06:11:36;;;;;;;13.85;2.75;;;5.40;99.90;;;;;;5030815;28;20098;-77
2024/01/19 06:14:02;;;;;;;11.00;2.25;;;4.20;99.90;;;;;;5026318;28;20043;-75
2024/01/19 06:16:31;;;;;;;10.38;2.30;;;4.00;99.90;;;;;;5063757;28;20060;-76
2024/01/19 06:18:59;;;;;;;10.68;1.90;;;3.50;99.90;;;;;;5047484;28;20045;-76
2024/01/19 06:21:25;;;;;;;7.35;3.33;;;3.60;99.90;;;;;;5015140;28;20106;-79
2024/01/19 06:23:51;;;;;;;10.38;3.42;;;4.00;99.90;;;;;;5040721;28;20554;-77
2024/01/19 06:26:16;;;;;;;6.85;2.13;;;4.00;99.90;;;;;;5020290;28;20036;-77
2024/01/19 06:28:42;;;;;;;8.35;2.30;;;3.60;99.90;;;;;;5036091;28;20369;-80
2024/01/19 06:31:10;;;;;;;6.70;2.00;;;4.00;99.90;;;;;;5062918;28;20458;-78
2024/01/19 06:33:37;;;;;;;6.60;1.80;;;3.40;99.90;;;;;;5045446;28;20024;-80
2024/01/19 06:36:08;;;;;;;13.15;2.65;;;4.20;99.90;;;;;;5049716;28;20075;-78
2024/01/19 06:38:33;;;;;;;13.85;3.40;;;4.30;99.90;;;;;;5055202;28;20472;-79
2024/01/19 06:40:59;;;;;;;12.73;3.10;;;3.90;99.90;;;;;;5049242;28;20059;-78
2024/01/19 06:43:25;;;;;;;9.07;2.40;;;4.00;99.90;;;;;;5052760;28;20047;-77
2024/01/19 06:45:50;;;;;;;11.00;2.10;;;3.80;99.90;;;;;;5043398;28;20131;-78
2024/01/19 06:48:16;;;;;;;10.75;2.78;;;3.80;99.90;;;;;;5044748;28;20041;-79
2024/01/19 06:50:42;;;;;;;9.40;2.40;;;4.20;99.90;;;;;;5027087;28;20041;-78
2024/01/19 06:53:07;;;;;;;9.23;2.25;;;4.10;99.90;;;;;;5060018;28;20032;-82
2024/01/19 06:55:33;;;;;;;8.18;2.33;;;4.10;99.90;;;;;;5045419;28;20045;-78
2024/01/19 06:57:59;;;;;;;8.32;2.45;;;3.70;99.90;;;;;;5054305;28;20032;-77
2024/01/19 07:00:25;;;;;;;12.00;2.63;;;3.50;99.90;;;;;;5026133;28;20033;-78
2024/01/19 07:02:51;;;;;;;9.95;2.63;;;3.40;99.90;;;;;;5029695;28;20572;-78
2024/01/19 07:05:17;;;;;;;9.88;2.35;;;3.40;99.90;;;;;;5024152;28;20048;-78
2024/01/19 07:07:42;;;;;;;8.15;2.53;;;3.90;99.90;;;;;;5056776;28;20039;-77
2024/01/19 07:10:09;;;;;;;11.48;1.92;;;3.30;99.90;;;;;;5034081;28;20033;-78
2024/01/19 07:12:34;;;;;;;8.43;2.28;;;3.90;99.90;;;;;;5039843;28;20043;-78
2024/01/19 07:15:00;;;;;;;11.98;2.47;;;4.00;99.90;;;;;;5042637;28;20045;-78
2024/01/19 07:17:26;;;;;;;6.05;1.85;;;3.30;99.90;;;;;;5020739;28;20501;-79
2024/01/19 07:19:51;;;;;;;8.73;2.33;;;3.60;99.90;;;;;;5048390;28;20037;-79
2024/01/19 07:22:17;;;;;;;9.00;2.35;;;3.90;99.90;;;;;;5029265;28;20036;-77
2024/01/19 07:24:43;;;;;;;13.18;2.83;;;3.20;99.90;;;;;;5045909;28;20040;-78
2024/01/19 07:27:08;;;;;;;11.02;2.20;;;4.80;99.90;;;;;;5009478;28;20040;-78
2024/01/19 07:29:34;;;;;;;6.50;2.20;;;3.90;99.90;;;;;;5028657;28;20037;-78
2024/01/19 07:31:59;;;;;;;11.38;2.58;;;3.80;99.90;;;;;;5030992;28;20062;-80
2024/01/19 07:34:25;;;;;;;11.70;2.47;;;3.60;99.90;;;;;;5048770;28;20170;-78
2024/01/19 07:36:52;;;;;;;9.95;2.47;;;3.80;99.90;;;;;;5050658;28;20587;-78
2024/01/19 07:39:23;;;;;;;10.38;2.30;;;3.50;99.90;;;;;;5039566;28;20045;-78
2024/01/19 07:41:51;;;;;;;8.73;2.20;;;4.60;99.90;;;;;;5043339;28;20534;-79
2024/01/19 07:44:17;;;;;;;11.55;2.42;;;3.60;99.90;;;;;;5075236;28;20041;-79
2024/01/19 07:46:43;;;;;;;13.75;2.70;;;3.90;99.90;;;;;;5046614;28;20036;-79
2024/01/19 07:49:08;;;;;;;14.38;2.75;;;4.50;99.90;;;;;;5036739;28;20106;-73
2024/01/19 07:51:34;;;;;;;14.57;2.67;;;4.00;99.90;;;;;;5046605;28;20083;-78
2024/01/19 07:54:00;;;;;;;14.00;3.15;;;4.60;99.90;;;;;;5051724;28;20045;-79
2024/01/19 07:56:25;;;;;;;12.02;2.70;;;4.30;99.90;;;;;;5055911;28;20037;-80
2024/01/19 07:58:51;;;;;;;15.27;3.35;;;4.40;99.90;;;;;;5050785;28;20043;-81
2024/01/19 08:01:17;;;;;;;11.43;2.67;;;4.50;99.90;;;;;;5042195;28;20049;-81
2024/01/19 08:03:43;;;;;;;13.25;3.25;;;4.90;99.90;;;;;;5029088;28;20052;-80
2024/01/19 08:06:09;;;;;;;13.50;3.58;;;4.60;99.90;;;;;;5058879;28;20045;-80
2024/01/19 08:08:35;;;;;;;26.15;10.82;;;4.40;99.90;;;;;;5057882;28;20120;-78
2024/01/19 08:11:01;;;;;;;14.05;4.35;;;4.60;99.90;;;;;;5028682;28;20049;-81
2024/01/19 08:13:26;;;;;;;14.82;3.63;;;4.80;99.90;;;;;;5052978;28;20028;-79
2024/01/19 08:15:52;;;;;;;8.80;2.55;;;5.00;99.90;;;;;;5036227;28;20061;-79
2024/01/19 08:18:18;;;;;;;10.40;2.95;;;4.70;99.90;;;;;;5047663;28;20101;-79
2024/01/19 08:20:43;;;;;;;13.05;3.08;;;5.00;99.90;;;;;;5022948;28;20087;-78
2024/01/19 08:23:09;;;;;;;17.23;3.42;;;4.90;99.90;;;;;;5071342;28;20057;-79
2024/01/19 08:25:35;;;;;;;12.82;3.05;;;4.60;99.90;;;;;;5030308;28;20041;-78
2024/01/19 08:28:01;;;;;;;10.40;2.80;;;4.70;99.90;;;;;;5060721;28;20477;-79
2024/01/19 08:30:27;;;;;;;10.80;2.60;;;4.60;99.90;;;;;;5061138;28;20024;-80
2024/01/19 08:32:52;;;;;;;11.60;2.75;;;5.10;99.90;;;;;;5041392;28;20071;-77
2024/01/19 08:35:18;;;;;;;8.70;2.65;;;5.30;99.90;;;;;;5049407;28;20808;-78
2024/01/19 08:37:44;;;;;;;9.20;2.45;;;4.70;99.90;;;;;;5054723;28;20033;-78
2024/01/19 08:40:12;;;;;;;10.55;2.22;;;5.40;99.90;;;;;;5054165;28;20597;-78
2024/01/19 08:42:38;;;;;;;10.50;2.17;;;5.50;99.90;;;;;;5087856;27;20124;-79
2024/01/19 08:45:04;;;;;;;7.25;1.95;;;5.20;98.50;;;;;;5023383;28;20381;-78
2024/01/19 08:47:30;;;;;;;7.15;2.10;;;5.60;1.00;;;;;;5036040;28;20044;-78
2024/01/19 08:49:56;;;;;;;14.05;3.20;;;6.00;99.90;;;;;;5084742;28;20120;-77
2024/01/19 08:52:22;;;;;;;6.47;2.03;;;5.90;99.90;;;;;;5040457;28;20124;-77
2024/01/19 08:54:48;;;;;;;7.40;2.00;;;6.10;99.90;;;;;;5079092;28;20041;-77
2024/01/19 08:57:14;;;;;;;8.38;2.88;;;5.70;99.90;;;;;;5031114;28;20155;-78
2024/01/19 08:59:40;;;;;;;10.98;2.30;;;6.00;43.00;;;;;;5035733;28;20041;-77
2024/01/19 09:02:07;;;;;;;12.90;2.65;;;6.00;1.00;;;;;;5040552;28;20480;-78
2024/01/19 09:04:35;;;;;;;8.13;2.55;;;5.70;14.40;;;;;;5024737;28;20177;-78
2024/01/19 09:07:04;;;;;;;11.73;2.35;;;6.20;38.50;;;;;;5087669;28;20123;-78
2024/01/19 09:09:30;;;;;;;7.60;2.15;;;6.20;1.00;;;;;;5034700;28;20044;-78
2024/01/19 09:11:56;;;;;;;9.00;2.55;;;5.60;1.00;;;;;;5050071;28;20072;-80
2024/01/19 09:14:31;;;;;;;5.82;2.00;;;6.10;1.00;;;;;;5068360;28;20075;-78
2024/01/19 09:16:58;;;;;;;11.00;2.58;;;6.10;1.00;;;;;;5042178;28;20084;-77
2024/01/19 09:19:24;;;;;;;13.68;3.20;;;6.10;1.00;;;;;;5041508;28;20044;-78
2024/01/19 09:21:50;;;;;;;6.47;2.10;;;5.70;1.00;;;;;;5038236;28;20039;-77
2024/01/19 09:24:17;;;;;;;9.85;2.55;;;6.00;1.00;;;;;;5032513;28;20048;-77
2024/01/19 09:26:43;;;;;;;9.95;2.33;;;6.20;1.00;;;;;;5084749;28;20424;-76
2024/01/19 09:29:10;;;;;;;7.70;2.53;;;6.70;99.90;;;;;;5023085;28;20047;-77
2024/01/19 09:31:47;;;;;;;8.65;2.20;;;6.60;99.90;;;;;;5048040;28;20433;-76
2024/01/19 09:34:14;;;;;;;9.52;2.60;;;7.10;99.90;;;;;;5048354;28;20029;-77
2024/01/19 09:36:40;;;;;;;5.35;2.03;;;7.30;99.90;;;;;;5062694;28;20044;-78
2024/01/19 09:39:06;;;;;;;7.85;1.90;;;7.40;99.90;;;;;;5030595;28;20425;-77
2024/01/19 09:41:45;;;;;;;11.10;2.70;;;7.80;14.50;;;;;;5034535;28;20045;-80
2024/01/19 09:44:12;;;;;;;10.10;2.55;;;7.90;1.80;;;;;;5054843;28;20048;-79
2024/01/19 09:46:50;;;;;;;11.05;2.55;;;8.20;1.00;;;;;;5029722;28;20183;-78
2024/01/19 09:49:24;;;;;;;6.57;2.10;;;8.10;1.00;;;;;;5059978;28;20037;-78
2024/01/19 09:52:02;;;;;;;8.48;2.85;;;8.30;1.00;;;;;;5066095;28;20052;-77
2024/01/19 09:54:35;;;;;;;8.18;2.53;;;8.60;1.00;;;;;;5068812;28;20103;-78
2024/01/19 09:57:02;;;;;;;11.32;2.60;;;8.90;1.00;;;;;;5047406;28;20047;-78
2024/01/19 09:59:33;;;;;;;9.32;2.88;;;9.00;1.00;;;;;;5048649;28;20052;-78
2024/01/19 10:02:01;;;;;;;7.70;2.50;;;9.00;99.90;;;;;;5051087;28;20052;-78
2024/01/19 10:04:29;;;;;;;9.27;2.25;;;9.70;99.90;;;;;;5051207;28;20052;-78
2024/01/19 10:06:55;;;;;;;7.78;2.47;;;9.50;99.90;;;;;;5070196;28;20037;-79
2024/01/19 10:09:23;;;;;;;8.63;2.40;;;9.40;99.90;;;;;;5063589;28;20060;-77
2024/01/19 10:11:53;;;;;;;7.10;2.20;;;9.70;99.90;;;;;;5047946;28;20052;-81
2024/01/19 10:14:19;;;;;;;9.10;2.42;;;10.10;99.90;;;;;;5062587;28;20102;-77
2024/01/19 10:16:48;;;;;;;7.75;2.55;;;9.50;99.90;;;;;;5082099;28;20064;-77
2024/01/19 10:19:14;;;;;;;9.88;2.35;;;9.80;99.90;;;;;;5051330;28;20080;-77
2024/01/19 10:21:40;;;;;;;8.02;2.22;;;10.00;99.90;;;;;;5049174;28;20036;-77
2024/01/19 10:24:20;;;;;;;9.77;2.70;;;10.00;99.90;;;;;;5063572;28;20037;-77
2024/01/19 10:26:55;;;;;;;9.27;2.53;;;10.30;99.90;;;;;;5053458;28;20072;-77
2024/01/19 10:29:22;;;;;;;6.57;1.95;;;9.60;99.90;;;;;;5056638;28;20036;-76
2024/01/19 10:31:50;;;;;;;6.65;2.03;;;9.30;99.90;;;;;;5063626;28;20072;-75
2024/01/19 10:34:23;;;;;;;8.95;2.22;;;9.00;99.90;;;;;;5058115;28;20044;-75
2024/01/19 10:36:50;;;;;;;8.80;2.50;;;9.20;99.90;;;;;;5055477;28;20440;-75
2024/01/19 10:39:29;;;;;;;7.97;2.33;;;9.70;99.90;;;;;;5028643;28;20147;-75
2024/01/19 10:42:06;;;;;;;7.32;1.80;;;9.80;99.90;;;;;;5055489;28;20448;-76
2024/01/19 10:44:32;;;;;;;9.35;2.65;;;10.30;99.90;;;;;;5049691;28;20095;-76
2024/01/19 10:46:58;;;;;;;8.45;2.13;;;10.80;99.90;;;;;;5051441;28;20557;-76
2024/01/19 10:49:24;;;;;;;5.82;2.15;;;10.90;99.90;;;;;;5040436;28;20092;-77
2024/01/19 10:51:50;;;;;;;9.73;2.40;;;11.10;99.90;;;;;;5029827;28;20029;-77
2024/01/19 10:54:29;;;;;;;7.55;2.00;;;11.10;99.90;;;;;;5077503;28;20036;-76
2024/01/19 10:57:06;;;;;;;8.05;2.10;;;11.40;99.90;;;;;;5045018;28;20114;-76
2024/01/19 10:59:32;;;;;;;6.57;2.55;;;11.10;99.90;;;;;;5063609;28;20048;-77
2024/01/19 11:01:59;;;;;;;6.40;2.17;;;11.50;98.40;;;;;;5063876;28;20047;-77
2024/01/19 11:04:26;;;;;;;6.40;2.53;;;11.70;29.00;;;;;;5048068;28;20044;-77
2024/01/19 11:06:52;;;;;;;12.40;2.33;;;11.60;57.50;;;;;;5063091;28;20488;-76
2024/01/19 11:09:18;;;;;;;7.95;1.90;;;11.70;77.40;;;;;;5044487;28;20040;-77
2024/01/19 11:11:58;;;;;;;7.35;2.13;;;12.10;81.10;;;;;;5064457;28;20044;-75
2024/01/19 11:14:26;;;;;;;7.82;2.30;;;11.60;29.30;;;;;;5048870;28;20051;-76
2024/01/19 11:16:54;;;;;;;5.35;1.85;;;12.00;6.10;;;;;;5078500;28;20048;-75
2024/01/19 11:19:21;;;;;;;10.43;1.90;;;12.00;47.60;;;;;;5067898;28;20124;-75
2024/01/19 11:21:47;;;;;;;6.93;2.38;;;12.30;14.60;;;;;;5052216;28;20036;-78
2024/01/19 11:24:15;;;;;;;6.68;2.42;;;11.90;1.00;;;;;;5054037;28;20044;-75
2024/01/19 11:26:53;;;;;;;4.82;1.65;;;11.60;1.00;;;;;;5045505;28;20440;-76
2024/01/19 11:29:22;;;;;;;7.00;1.75;;;12.10;1.00;;;;;;5031283;28;20037;-77
2024/01/19 11:31:50;;;;;;;5.85;1.60;;;12.40;10.80;;;;;;5034553;28;20041;-76
2024/01/19 11:34:40;;;;;;;6.68;1.60;;;12.60;1.00;;;;;;5052346;28;20107;-77
2024/01/19 11:37:06;;;;;;;12.07;2.58;;;12.60;1.00;;;;;;5051817;28;20066;-77
2024/01/19 11:39:42;;;;;;;10.38;2.08;;;12.00;1.00;;;;;;5045636;28;20522;-77
2024/01/19 11:42:33;;;;;;;6.57;1.90;;;11.50;1.00;;;;;;5063353;28;20053;-76
2024/01/19 11:44:59;;;;;;;6.30;1.92;;;10.90;1.00;;;;;;5060421;28;20092;-76
2024/01/19 11:47:38;;;;;;;5.35;1.85;;;11.00;43.10;;;;;;5051378;28;20077;-76
2024/01/19 11:50:12;;;;;;;8.63;2.22;;;10.70;21.30;;;;;;5071294;28;20442;-76
2024/01/19 11:52:39;;;;;;;7.60;2.28;;;10.90;1.90;;;;;;5059814;28;20059;-78
2024/01/19 11:55:27;;;;;;;8.23;2.45;;;11.10;12.00;;;;;;5067502;28;20064;-75
2024/01/19 11:57:53;;;;;;;5.70;1.77;;;11.20;8.60;;;;;;5059478;28;20075;-75
2024/01/19 12:00:20;;;;;;;9.60;2.15;;;11.10;1.00;;;;;;5051940;28;20040;-77
2024/01/19 12:02:46;;;;;;;7.28;1.88;;;11.20;1.00;;;;;;5050480;28;20124;-78
2024/01/19 12:05:12;;;;;;;7.30;2.15;;;11.60;1.00;;;;;;5068223;28;20051;-76
2024/01/19 12:07:39;;;;;;;8.18;1.95;;;11.80;1.00;;;;;;5058750;28;20044;-76
2024/01/19 12:10:05;;;;;;;8.57;2.50;;;11.60;1.00;;;;;;5054864;28;20036;-77
2024/01/19 12:12:32;;;;;;;9.25;2.28;;;11.50;1.00;;;;;;5069316;28;20032;-77
2024/01/19 12:14:59;;;;;;;9.18;2.20;;;11.20;1.00;;;;;;5046059;28;20680;-77
2024/01/19 12:17:26;;;;;;;7.28;1.85;;;10.50;1.00;;;;;;5065441;28;20075;-76
2024/01/19 12:19:52;;;;;;;8.90;1.77;;;10.50;1.00;;;;;;5069915;28;20043;-77
2024/01/19 12:22:19;;;;;;;7.82;1.80;;;10.30;11.40;;;;;;5050678;28;20094;-78
2024/01/19 12:24:45;;;;;;;9.02;2.45;;;10.30;29.10;;;;;;5070223;28;20044;-77
2024/01/19 12:27:16;;;;;;;15.30;2.20;;;10.30;26.30;;;;;;5067232;28;20161;-76
2024/01/19 12:29:42;;;;;;;8.02;1.80;;;10.70;9.30;;;;;;5047159;28;20140;-77
2024/01/19 12:32:09;;;;;;;6.35;2.22;;;10.50;6.20;;;;;;5041509;28;20127;-77
2024/01/19 12:34:35;;;;;;;9.02;2.35;;;10.30;18.00;;;;;;5068021;28;20040;-76
2024/01/19 12:37:01;;;;;;;6.45;2.00;;;10.10;20.30;;;;;;5048390;28;20064;-76
2024/01/19 12:39:27;;;;;;;7.15;2.35;;;10.30;42.60;;;;;;5049948;28;20415;-76
2024/01/19 12:42:00;;;;;;;10.30;2.47;;;10.30;26.60;;;;;;5064058;28;20103;-79
2024/01/19 12:44:26;;;;;;;7.88;1.95;;;10.10;40.70;;;;;;5068315;28;20119;-75
2024/01/19 12:46:52;;;;;;;8.13;1.95;;;10.00;44.80;;;;;;5034379;28;20068;-77
2024/01/19 12:49:18;;;;;;;12.75;2.00;;;9.90;47.00;;;;;;5032683;28;20448;-77
2024/01/19 12:51:44;;;;;;;6.63;2.00;;;9.60;53.10;;;;;;5043692;28;20633;-76
2024/01/19 12:54:12;;;;;;;8.35;2.10;;;9.50;67.20;;;;;;5040436;28;20598;-79